createdAt,value
2018-02-16T00:01:53.189Z,7.63
2018-02-16T00:04:21.564Z,11.50
2018-02-16T00:06:49.944Z,9.70
2018-02-16T00:09:18.333Z,8.33
2018-02-16T00:11:46.806Z,9.60
2018-02-16T00:14:15.897Z,8.67
2018-02-16T00:16:44.489Z,6.07
2018-02-16T00:19:12.842Z,7.00
2018-02-16T00:21:41.142Z,6.67
2018-02-16T00:24:09.530Z,7.23
2018-02-16T00:26:37.793Z,7.07
2018-02-16T00:29:06.578Z,7.90
2018-02-16T00:31:35.094Z,9.50
2018-02-16T00:34:03.638Z,7.47
2018-02-16T00:36:32.003Z,6.97
2018-02-16T00:39:00.490Z,7.40
2018-02-16T00:41:29.085Z,7.00
2018-02-16T00:43:57.462Z,8.20
2018-02-16T00:46:25.834Z,5.90
2018-02-16T00:48:54.421Z,7.17
2018-02-16T00:51:22.783Z,10.73
2018-02-16T00:53:51.176Z,7.70
2018-02-16T00:56:19.553Z,8.40
2018-02-16T00:58:48.032Z,7.57
2018-02-16T01:01:16.518Z,7.80
2018-02-16T01:03:44.898Z,9.57
2018-02-16T01:06:13.477Z,7.97
2018-02-16T01:08:41.956Z,7.43
2018-02-16T01:11:10.228Z,7.23
2018-02-16T01:13:38.401Z,9.03
2018-02-16T01:16:06.577Z,6.80
2018-02-16T01:18:35.308Z,6.80
2018-02-16T01:21:03.589Z,8.90
2018-02-16T01:23:32.121Z,7.27
2018-02-16T01:26:00.594Z,7.30
2018-02-16T01:28:29.086Z,7.97
2018-02-16T01:30:57.670Z,7.20
2018-02-16T01:33:26.136Z,8.33
2018-02-16T01:35:54.328Z,6.70
2018-02-16T01:38:22.800Z,7.43
2018-02-16T01:40:51.082Z,7.27
2018-02-16T01:43:19.465Z,5.40
2018-02-16T01:45:48.757Z,6.90
2018-02-16T01:48:17.443Z,5.90
2018-02-16T01:50:45.816Z,6.70
2018-02-16T01:53:14.402Z,7.17
2018-02-16T01:55:42.678Z,7.80
2018-02-16T01:58:10.870Z,6.27
2018-02-16T02:00:39.586Z,6.77
2018-02-16T02:03:07.819Z,6.10
2018-02-16T02:05:36.379Z,7.67
2018-02-16T02:08:04.562Z,8.20
2018-02-16T02:10:32.946Z,7.90
2018-02-16T02:13:01.229Z,8.07
2018-02-16T02:15:29.402Z,8.30
2018-02-16T02:17:57.865Z,11.13
2018-02-16T02:20:26.250Z,7.73
2018-02-16T02:22:54.736Z,7.93
2018-02-16T02:25:23.110Z,9.07
2018-02-16T02:27:51.593Z,14.07
2018-02-16T02:30:20.173Z,8.03
2018-02-16T02:32:48.970Z,8.47
2018-02-16T02:35:17.546Z,8.83
2018-02-16T02:37:46.697Z,7.00
2018-02-16T02:40:15.330Z,7.73
2018-02-16T02:42:43.805Z,8.73
2018-02-16T02:45:13.417Z,8.20
2018-02-16T02:47:41.890Z,9.33
2018-02-16T02:50:10.282Z,7.33
2018-02-16T02:52:38.649Z,7.53
2018-02-16T02:55:07.029Z,15.50
2018-02-16T02:57:35.510Z,8.90
2018-02-16T03:00:03.718Z,8.93
2018-02-16T03:02:32.062Z,10.10
2018-02-16T03:05:00.262Z,9.53
2018-02-16T03:07:28.614Z,9.10
2018-02-16T03:09:57.201Z,17.43
2018-02-16T03:12:25.574Z,10.93
2018-02-16T03:14:53.850Z,7.80
2018-02-16T03:17:22.369Z,11.07
2018-02-16T03:19:50.871Z,8.43
2018-02-16T03:22:19.175Z,10.77
2018-02-16T03:24:47.461Z,8.77
2018-02-16T03:27:15.843Z,9.07
2018-02-16T03:29:44.421Z,6.67
2018-02-16T03:32:13.010Z,10.50
2018-02-16T03:34:41.594Z,12.97
2018-02-16T03:37:10.074Z,10.07
2018-02-16T03:39:38.449Z,21.57
2018-02-16T03:42:07.036Z,11.27
2018-02-16T03:44:35.405Z,9.20
2018-02-16T03:47:03.665Z,7.87
2018-02-16T03:49:32.066Z,8.83
2018-02-16T03:52:00.325Z,7.67
2018-02-16T03:54:28.612Z,9.80
2018-02-16T03:56:57.203Z,10.77
2018-02-16T03:59:25.313Z,13.10
2018-02-16T04:01:53.645Z,7.40
2018-02-16T04:04:21.917Z,9.50
2018-02-16T04:06:50.303Z,19.43
2018-02-16T04:09:18.973Z,16.47
2018-02-16T04:11:47.266Z,10.70
2018-02-16T04:14:15.945Z,11.17
2018-02-16T04:16:44.617Z,12.03
2018-02-16T04:19:13.480Z,10.40
2018-02-16T04:21:41.808Z,11.50
2018-02-16T04:24:10.381Z,12.50
2018-02-16T04:26:38.566Z,20.70
2018-02-16T04:29:07.142Z,10.97
2018-02-16T04:31:35.619Z,9.30
2018-02-16T04:34:03.893Z,9.20
2018-02-16T04:36:32.886Z,10.00
2018-02-16T04:39:01.161Z,20.30
2018-02-16T04:41:29.442Z,43.80
2018-02-16T04:43:57.918Z,53.73
2018-02-16T04:46:26.398Z,32.87
2018-02-16T04:48:55.028Z,111.20
2018-02-16T04:51:23.158Z,35.97
2018-02-16T04:53:51.533Z,28.17
2018-02-16T04:56:20.009Z,22.23
2018-02-16T04:58:48.373Z,18.77
2018-02-16T05:01:16.870Z,14.37
2018-02-16T05:03:45.254Z,14.07
2018-02-16T05:06:13.713Z,21.80
2018-02-16T05:08:42.626Z,55.97
2018-02-16T05:11:11.304Z,32.83
2018-02-16T05:13:39.891Z,23.20
2018-02-16T05:16:08.109Z,15.27
2018-02-16T05:18:36.541Z,37.70
2018-02-16T05:21:04.984Z,24.07
2018-02-16T05:23:33.506Z,15.50
2018-02-16T05:26:01.694Z,12.77
2018-02-16T05:28:30.155Z,13.50
2018-02-16T05:30:58.583Z,12.67
2018-02-16T05:33:27.017Z,14.10
2018-02-16T05:35:55.626Z,13.03
2018-02-16T05:38:24.385Z,12.60
2018-02-16T05:40:52.924Z,15.30
2018-02-16T05:43:21.652Z,22.90
2018-02-16T05:45:50.137Z,45.03
2018-02-16T05:48:19.031Z,44.57
2018-02-16T05:50:48.623Z,32.67
2018-02-16T05:53:17.108Z,22.53
2018-02-16T05:55:45.902Z,24.93
2018-02-16T05:58:14.159Z,27.27
2018-02-16T06:00:42.660Z,47.30
2018-02-16T06:03:12.094Z,29.43
2018-02-16T06:05:40.643Z,33.37
2018-02-16T06:08:09.077Z,17.13
2018-02-16T06:10:37.017Z,16.93
2018-02-16T06:13:04.895Z,28.17
2018-02-16T06:15:32.825Z,31.40
2018-02-16T06:18:00.780Z,42.03
2018-02-16T06:20:29.276Z,31.23
2018-02-16T06:22:57.836Z,47.60
2018-02-16T06:25:26.343Z,35.07
2018-02-16T06:27:54.712Z,28.30
2018-02-16T06:30:23.085Z,23.70
2018-02-16T06:32:51.575Z,29.30
2018-02-16T06:35:20.172Z,19.77
2018-02-16T06:37:48.430Z,15.47
2018-02-16T06:40:17.020Z,25.73
2018-02-16T06:42:45.270Z,33.30
2018-02-16T06:45:13.778Z,42.53
2018-02-16T06:47:42.259Z,28.97
2018-02-16T06:50:10.630Z,21.23
2018-02-16T06:52:38.806Z,14.47
2018-02-16T06:55:07.119Z,12.03
2018-02-16T06:57:35.658Z,9.97
2018-02-16T07:00:04.241Z,11.50
2018-02-16T07:02:32.435Z,10.20
2018-02-16T07:05:00.892Z,10.97
2018-02-16T07:07:29.211Z,27.60
2018-02-16T07:09:57.848Z,30.90
2018-02-16T07:12:26.437Z,28.03
2018-02-16T07:14:54.756Z,23.40
2018-02-16T07:17:23.401Z,24.73
2018-02-16T07:19:51.669Z,27.03
2018-02-16T07:22:20.058Z,38.90
2018-02-16T07:24:48.432Z,28.30
2018-02-16T07:27:16.706Z,27.40
2018-02-16T07:29:45.294Z,24.53
2018-02-16T07:32:13.601Z,19.17
2018-02-16T07:34:41.841Z,25.60
2018-02-16T07:37:10.203Z,11.33
2018-02-16T07:39:38.720Z,15.13
2018-02-16T07:42:07.506Z,11.70
2018-02-16T07:44:35.800Z,9.60
2018-02-16T07:47:04.141Z,9.10
2018-02-16T07:49:32.341Z,12.87
2018-02-16T07:52:00.897Z,73.10
2018-02-16T07:54:29.197Z,32.80
2018-02-16T07:56:57.146Z,41.97
2018-02-16T07:59:25.153Z,45.47
2018-02-16T08:01:53.163Z,23.40
2018-02-16T08:04:21.139Z,20.27
2018-02-16T08:06:49.150Z,18.37
2018-02-16T08:09:17.198Z,24.60
2018-02-16T08:11:45.171Z,18.23
2018-02-16T08:14:13.115Z,13.87
2018-02-16T08:16:41.066Z,27.47
2018-02-16T08:19:09.053Z,14.97
2018-02-16T08:21:36.974Z,46.43
2018-02-16T08:24:04.918Z,63.27
2018-02-16T08:26:32.889Z,40.80
2018-02-16T08:29:00.872Z,34.17
2018-02-16T08:31:28.832Z,23.10
2018-02-16T08:33:56.820Z,32.67
2018-02-16T08:36:24.846Z,29.83
2018-02-16T08:38:52.817Z,26.03
2018-02-16T08:41:20.786Z,34.60
2018-02-16T08:43:49.304Z,33.70
2018-02-16T08:46:17.234Z,35.23
2018-02-16T08:48:45.169Z,32.10
2018-02-16T08:51:13.122Z,23.13
2018-02-16T08:53:41.167Z,25.80
2018-02-16T08:56:09.087Z,32.60
2018-02-16T08:58:37.007Z,51.47
2018-02-16T09:01:04.967Z,23.37
2018-02-16T09:03:32.917Z,41.43
2018-02-16T09:06:00.835Z,17.40
2018-02-16T09:08:28.781Z,21.87
2018-02-16T09:10:56.758Z,25.30
2018-02-16T09:13:24.724Z,30.50
2018-02-16T09:15:52.728Z,38.70
2018-02-16T09:18:20.713Z,35.53
2018-02-16T09:20:48.689Z,23.73
2018-02-16T09:23:16.597Z,20.87
2018-02-16T09:25:44.512Z,27.30
2018-02-16T09:28:12.522Z,26.93
2018-02-16T09:30:40.466Z,27.80
2018-02-16T09:33:08.479Z,18.07
2018-02-16T09:35:37.658Z,16.80
2018-02-16T09:38:05.613Z,27.77
2018-02-16T09:40:33.572Z,25.27
2018-02-16T09:43:01.607Z,19.33
2018-02-16T09:45:30.034Z,29.33
2018-02-16T09:47:57.992Z,15.90
2018-02-16T09:50:25.943Z,15.73
2018-02-16T09:52:53.919Z,14.93
2018-02-16T09:55:21.887Z,13.43
2018-02-16T09:57:49.923Z,15.33
2018-02-16T10:00:17.907Z,18.87
2018-02-16T10:02:45.891Z,17.67
2018-02-16T10:05:13.910Z,16.73
2018-02-16T10:07:41.855Z,17.37
2018-02-16T10:10:09.858Z,13.60
2018-02-16T10:12:37.870Z,34.63
2018-02-16T10:15:05.976Z,15.00
2018-02-16T10:17:33.941Z,32.37
2018-02-16T10:20:01.960Z,12.83
2018-02-16T10:22:29.988Z,14.77
2018-02-16T10:24:58.037Z,25.50
2018-02-16T10:27:26.061Z,15.70
2018-02-16T10:29:54.084Z,11.07
2018-02-16T10:32:22.117Z,10.43
2018-02-16T10:34:50.100Z,8.53
2018-02-16T10:37:18.141Z,12.47
2018-02-16T10:39:46.167Z,42.17
2018-02-16T10:42:14.168Z,20.20
2018-02-16T10:44:42.164Z,30.83
2018-02-16T10:47:10.632Z,10.13
2018-02-16T10:49:38.590Z,26.17
2018-02-16T10:52:06.602Z,14.77
2018-02-16T10:54:34.559Z,16.67
2018-02-16T10:57:02.545Z,9.30
2018-02-16T10:59:30.588Z,14.53
2018-02-16T11:02:04.180Z,14.07
2018-02-16T11:04:37.743Z,13.40
2018-02-16T11:07:11.304Z,12.73
2018-02-16T11:09:39.925Z,8.97
2018-02-16T11:12:07.902Z,11.27
2018-02-16T11:14:35.910Z,34.40
2018-02-16T11:17:03.862Z,7.63
2018-02-16T11:19:31.824Z,9.93
2018-02-16T11:21:59.811Z,12.53
2018-02-16T11:24:27.760Z,15.13
2018-02-16T11:26:55.765Z,9.50
2018-02-16T11:29:23.706Z,13.23
2018-02-16T11:31:51.726Z,28.30
2018-02-16T11:34:19.684Z,8.67
2018-02-16T11:36:47.614Z,188.70
2018-02-16T11:39:15.561Z,375.10
2018-02-16T11:41:43.569Z,23.43
2018-02-16T11:44:11.502Z,4.73
2018-02-16T11:46:39.461Z,156.20
2018-02-16T11:49:07.986Z,6.43
2018-02-16T11:51:35.898Z,7.93
2018-02-16T11:54:03.894Z,8.17
2018-02-16T11:56:31.909Z,8.27
2018-02-16T11:58:59.785Z,18.90
2018-02-16T12:01:27.784Z,15.23
2018-02-16T12:03:55.750Z,45.27
2018-02-16T12:06:23.717Z,11.17
2018-02-16T12:08:51.718Z,5.70
2018-02-16T12:11:19.741Z,14.77
2018-02-16T12:13:47.682Z,5.30
2018-02-16T12:16:15.592Z,4.80
2018-02-16T12:18:43.592Z,5.10
2018-02-16T12:21:11.555Z,7.50
2018-02-16T12:23:39.578Z,10.90
2018-02-16T12:26:07.534Z,4.50
2018-02-16T12:28:35.569Z,5.10
2018-02-16T12:31:03.634Z,4.10
2018-02-16T12:33:31.554Z,3.73
2018-02-16T12:35:59.520Z,2.90
2018-02-16T12:38:27.538Z,2.90
2018-02-16T12:40:55.554Z,43.47
2018-02-16T12:43:23.594Z,26.20
2018-02-16T12:45:51.567Z,10.80
2018-02-16T12:48:19.520Z,6.13
2018-02-16T12:50:47.809Z,18.00
2018-02-16T12:53:15.798Z,6.23
2018-02-16T12:55:43.807Z,11.73
2018-02-16T12:58:11.777Z,8.40
2018-02-16T13:00:39.764Z,33.90
2018-02-16T13:03:07.796Z,5.10
2018-02-16T13:05:35.749Z,4.30
2018-02-16T13:08:03.722Z,24.90
2018-02-16T13:10:31.704Z,4.90
2018-02-16T13:12:59.661Z,4.43
2018-02-16T13:15:27.631Z,2.63
2018-02-16T13:17:55.590Z,9.40
2018-02-16T13:20:23.515Z,2.73
2018-02-16T13:22:51.496Z,3.60
2018-02-16T13:25:19.514Z,2.87
2018-02-16T13:27:47.522Z,3.20
2018-02-16T13:30:20.201Z,30.90
2018-02-16T13:32:48.165Z,16.00
2018-02-16T13:35:16.197Z,10.17
2018-02-16T13:37:44.286Z,7.17
2018-02-16T13:40:12.378Z,6.47
2018-02-16T13:42:40.391Z,11.00
2018-02-16T13:45:08.395Z,18.53
2018-02-16T13:47:37.382Z,3.90
2018-02-16T13:50:05.423Z,4.27
2018-02-16T13:52:33.778Z,3.00
2018-02-16T13:55:01.737Z,8.33
2018-02-16T13:57:29.765Z,13.50
2018-02-16T13:59:57.682Z,10.43
2018-02-16T14:02:25.681Z,5.90
2018-02-16T14:04:53.661Z,6.40
2018-02-16T14:07:21.595Z,4.60
2018-02-16T14:09:49.509Z,15.00
2018-02-16T14:12:17.507Z,12.13
2018-02-16T14:14:45.505Z,8.47
2018-02-16T14:17:13.637Z,17.17
2018-02-16T14:19:41.642Z,45.17
2018-02-16T14:22:09.572Z,61.23
2018-02-16T14:24:37.546Z,11.40
2018-02-16T14:27:05.573Z,41.47
2018-02-16T14:29:33.488Z,14.97
2018-02-16T14:32:01.476Z,14.83
2018-02-16T14:34:29.524Z,37.37
2018-02-16T14:36:57.497Z,26.43
2018-02-16T14:39:25.583Z,40.93
2018-02-16T14:41:53.599Z,89.60
2018-02-16T14:44:21.616Z,27.13
2018-02-16T14:46:49.526Z,44.57
2018-02-16T14:49:17.503Z,38.53
2018-02-16T14:51:45.507Z,62.73
2018-02-16T14:54:13.890Z,64.03
2018-02-16T14:56:41.882Z,55.77
2018-02-16T14:59:09.828Z,37.47
2018-02-16T15:01:37.835Z,44.73
2018-02-16T15:04:05.839Z,54.03
2018-02-16T15:06:33.910Z,92.23
2018-02-16T15:09:01.854Z,115.53
2018-02-16T15:11:29.758Z,88.43
2018-02-16T15:13:57.766Z,50.33
2018-02-16T15:16:25.754Z,50.17
2018-02-16T15:18:53.744Z,63.03
2018-02-16T15:21:21.835Z,37.37
2018-02-16T15:23:49.787Z,47.37
2018-02-16T15:26:17.794Z,50.13
2018-02-16T15:28:46.074Z,69.20
2018-02-16T15:31:14.219Z,121.30
2018-02-16T15:33:42.167Z,120.60
2018-02-16T15:36:10.097Z,102.53
2018-02-16T15:38:38.110Z,116.27
2018-02-16T15:41:06.122Z,131.50
2018-02-16T15:43:35.001Z,103.80
2018-02-16T15:46:03.022Z,104.50
2018-02-16T15:48:31.464Z,111.67
2018-02-16T15:50:59.470Z,109.10
2018-02-16T15:53:27.409Z,105.97
2018-02-16T15:55:55.578Z,117.93
2018-02-16T15:58:23.542Z,138.53
2018-02-16T16:00:51.561Z,75.97
2018-02-16T16:03:20.676Z,55.83
2018-02-16T16:08:38.720Z,39.47
2018-02-16T16:11:06.689Z,53.23
2018-02-16T16:13:34.653Z,80.97
2018-02-16T16:16:02.680Z,78.10
2018-02-16T16:18:30.599Z,73.10
2018-02-16T16:20:59.314Z,75.17
2018-02-16T16:23:27.363Z,105.47
2018-02-16T16:25:55.313Z,94.53
2018-02-16T16:28:23.331Z,101.10
2018-02-16T16:30:51.257Z,104.60
2018-02-16T16:33:19.171Z,114.23
2018-02-16T16:35:47.167Z,86.37
2018-02-16T16:38:15.130Z,77.40
2018-02-16T16:40:43.052Z,86.87
2018-02-16T16:43:11.072Z,72.57
2018-02-16T16:45:39.041Z,83.00
2018-02-16T16:48:06.910Z,96.47
2018-02-16T16:50:34.934Z,85.97
2018-02-16T16:53:02.854Z,94.73
2018-02-16T16:55:30.839Z,111.53
2018-02-16T16:57:59.053Z,83.27
2018-02-16T17:00:27.078Z,87.20
2018-02-16T17:02:55.051Z,74.87
2018-02-16T17:05:23.014Z,100.43
2018-02-16T17:07:51.981Z,80.40
2018-02-16T17:10:20.106Z,61.30
2018-02-16T17:12:48.133Z,71.67
2018-02-16T17:15:16.064Z,68.63
2018-02-16T17:17:44.062Z,42.20
2018-02-16T17:20:12.074Z,46.80
2018-02-16T17:22:40.714Z,78.60
2018-02-16T17:25:08.649Z,86.80
2018-02-16T17:27:36.643Z,95.47
2018-02-16T17:30:04.723Z,107.90
2018-02-16T17:32:32.718Z,123.87
2018-02-16T17:35:00.629Z,122.83
2018-02-16T17:37:28.651Z,130.97
2018-02-16T17:39:56.625Z,115.13
2018-02-16T17:42:24.506Z,115.67
2018-02-16T17:44:52.499Z,115.23
2018-02-16T17:47:20.426Z,117.70
2018-02-16T17:49:48.394Z,132.77
2018-02-16T17:52:16.398Z,102.30
2018-02-16T17:54:44.369Z,81.20
2018-02-16T17:57:12.517Z,86.53
2018-02-16T17:59:41.079Z,84.53
2018-02-16T18:02:09.117Z,132.10
2018-02-16T18:04:37.057Z,104.47
2018-02-16T18:07:05.010Z,46.50
2018-02-16T18:09:32.898Z,69.43
2018-02-16T18:12:00.960Z,69.53
2018-02-16T18:14:28.871Z,42.63
2018-02-16T18:16:56.800Z,53.83
2018-02-16T18:19:24.783Z,54.87
2018-02-16T18:21:52.857Z,42.00
2018-02-16T18:24:20.794Z,93.17
2018-02-16T18:26:48.818Z,68.43
2018-02-16T18:29:16.798Z,51.90
2018-02-16T18:31:44.772Z,55.27
2018-02-16T18:34:12.846Z,31.10
2018-02-16T18:36:40.829Z,61.23
2018-02-16T18:39:08.821Z,198.80
2018-02-16T18:41:36.850Z,94.67
2018-02-16T18:44:04.908Z,33.50
2018-02-16T18:46:32.893Z,31.30
2018-02-16T18:49:00.905Z,26.00
2018-02-16T18:51:28.856Z,22.83
2018-02-16T18:53:56.874Z,24.00
2018-02-16T18:56:24.844Z,19.80
2018-02-16T18:58:52.860Z,20.23
2018-02-16T19:01:20.962Z,28.83
2018-02-16T19:03:48.956Z,24.30
2018-02-16T19:06:16.951Z,36.23
2018-02-16T19:08:44.862Z,26.33
2018-02-16T19:11:12.801Z,17.07
2018-02-16T19:13:40.779Z,25.03
2018-02-16T19:16:08.748Z,14.70
2018-02-16T19:18:36.697Z,25.17
2018-02-16T19:21:04.667Z,31.63
2018-02-16T19:23:32.693Z,32.73
2018-02-16T19:26:00.643Z,28.13
2018-02-16T19:28:28.594Z,33.47
2018-02-16T19:30:56.521Z,25.03
2018-02-16T19:33:24.474Z,28.00
2018-02-16T19:35:52.423Z,30.33
2018-02-16T19:38:20.347Z,27.17
2018-02-16T19:40:48.277Z,42.10
2018-02-16T19:43:16.270Z,28.93
2018-02-16T19:45:44.251Z,26.63
2018-02-16T19:48:12.202Z,44.60
2018-02-16T19:50:40.190Z,90.70
2018-02-16T19:53:08.251Z,85.60
2018-02-16T19:55:37.272Z,82.37
2018-02-16T19:58:05.286Z,103.80
2018-02-16T20:00:33.273Z,73.70
2018-02-16T20:03:01.732Z,75.20
2018-02-16T20:05:29.775Z,70.80
2018-02-16T20:07:57.749Z,71.43
2018-02-16T20:10:25.774Z,62.27
2018-02-16T20:12:53.697Z,40.90
2018-02-16T20:15:21.675Z,46.43
2018-02-16T20:17:49.635Z,40.37
2018-02-16T20:20:17.557Z,38.17
2018-02-16T20:22:45.492Z,37.60
2018-02-16T20:25:13.523Z,66.97
2018-02-16T20:27:41.486Z,70.00
2018-02-16T20:30:09.503Z,41.37
2018-02-16T20:32:37.570Z,65.83
2018-02-16T20:35:05.523Z,77.23
2018-02-16T20:37:33.523Z,65.07
2018-02-16T20:40:01.520Z,51.43
2018-02-16T20:42:29.458Z,43.90
2018-02-16T20:44:57.454Z,34.13
2018-02-16T20:47:25.423Z,46.23
2018-02-16T20:49:53.406Z,48.30
2018-02-16T20:52:21.267Z,46.63
2018-02-16T20:54:49.218Z,42.10
2018-02-16T20:57:17.212Z,41.63
2018-02-16T20:59:45.133Z,44.97
2018-02-16T21:02:13.126Z,95.10
2018-02-16T21:04:41.538Z,59.87
2018-02-16T21:07:09.571Z,41.57
2018-02-16T21:09:37.604Z,66.03
2018-02-16T21:12:05.581Z,62.97
2018-02-16T21:14:33.563Z,49.20
2018-02-16T21:17:01.529Z,43.50
2018-02-16T21:19:29.441Z,42.47
2018-02-16T21:21:57.353Z,26.70
2018-02-16T21:24:25.331Z,36.10
2018-02-16T21:26:53.292Z,37.40
2018-02-16T21:29:21.222Z,37.17
2018-02-16T21:31:49.189Z,34.10
2018-02-16T21:34:17.078Z,44.30
2018-02-16T21:36:45.086Z,49.17
2018-02-16T21:39:13.758Z,40.87
2018-02-16T21:41:42.288Z,34.40
2018-02-16T21:44:10.870Z,39.57
2018-02-16T21:46:39.245Z,65.07
2018-02-16T21:49:07.532Z,46.90
2018-02-16T21:51:35.898Z,52.47
2018-02-16T21:54:04.278Z,58.30
2018-02-16T21:56:32.554Z,78.70
2018-02-16T21:59:01.142Z,76.53
2018-02-16T22:01:29.217Z,66.47
2018-02-16T22:03:57.800Z,60.00
2018-02-16T22:06:26.074Z,49.43
2018-02-16T22:08:54.344Z,58.97
2018-02-16T22:11:22.936Z,62.70
2018-02-16T22:13:51.695Z,115.03
2018-02-16T22:16:20.097Z,143.23
2018-02-16T22:18:48.577Z,37.97
2018-02-16T22:21:16.946Z,120.40
2018-02-16T22:23:45.331Z,107.03
2018-02-16T22:26:13.777Z,169.17
2018-02-16T22:28:42.190Z,87.97
2018-02-16T22:31:10.769Z,110.07
2018-02-16T22:33:39.141Z,77.13
2018-02-16T22:36:07.527Z,79.73
2018-02-16T22:38:35.798Z,76.13
2018-02-16T22:41:04.287Z,55.90
2018-02-16T22:43:32.465Z,80.00
2018-02-16T22:46:01.038Z,87.83
2018-02-16T22:48:29.226Z,95.37
2018-02-16T22:50:57.592Z,123.87
2018-02-16T22:53:25.879Z,88.33
2018-02-16T22:55:54.445Z,71.30
2018-02-16T22:58:22.806Z,77.20
2018-02-16T23:00:51.208Z,51.67
2018-02-16T23:03:19.781Z,47.83
2018-02-16T23:05:47.955Z,56.20
2018-02-16T23:08:16.860Z,96.60
2018-02-16T23:10:45.225Z,83.63
2018-02-16T23:13:13.222Z,73.63
2018-02-16T23:15:41.176Z,100.87
2018-02-16T23:18:09.211Z,117.53
2018-02-16T23:20:37.227Z,140.63
2018-02-16T23:23:05.165Z,77.53
2018-02-16T23:25:33.138Z,54.33
2018-02-16T23:28:01.124Z,76.67
2018-02-16T23:30:29.098Z,43.20
2018-02-16T23:32:57.057Z,32.77
2018-02-16T23:35:25.079Z,33.40
2018-02-16T23:37:53.067Z,27.73
2018-02-16T23:40:21.008Z,36.43
2018-02-16T23:42:48.948Z,29.33
2018-02-16T23:45:16.865Z,26.23
2018-02-16T23:47:44.782Z,39.33
2018-02-16T23:50:12.721Z,41.60
2018-02-16T23:52:40.636Z,34.00
2018-02-16T23:55:08.574Z,33.13
2018-02-16T23:57:36.557Z,22.67
